Time;durP1;ratioP1;P1;durP2;ratioP2;P2;SDS_P1;SDS_P2;PMS_P1;PMS_P2;Temp;Humidity;BMP_temperature;BMP_pressure;BME280_temperature;BME280_humidity;BME280_pressure;Samples;Min_cycle;Max_cycle;Signal;HPM_P1;HPM_P2
2023/02/24 00:01:36;;;;;;;59.57;13.97;;;;;;;-145.69;100.00;52499.84;5135637;27;20532;-82
2023/02/24 00:04:06;;;;;;;55.00;13.63;;;;;;;-145.69;100.00;52499.84;5135241;27;20355;-82
2023/02/24 00:06:36;;;;;;;49.40;11.80;;;;;;;-145.69;100.00;52543.41;5135553;27;20200;-81
2023/02/24 00:09:04;;;;;;;27.20;9.87;;;;;;;-145.69;100.00;52511.72;5135252;27;20283;-81
2023/02/24 00:11:31;;;;;;;40.00;10.40;;;;;;;-145.69;100.00;52531.53;5134788;27;20597;-81
2023/02/24 00:13:58;;;;;;;34.70;9.40;;;;;;;-145.69;100.00;52523.59;5135259;27;20203;-81
2023/02/24 00:16:25;;;;;;;39.37;10.47;;;;;;;-145.69;100.00;52543.41;5135065;27;20666;-81
2023/02/24 00:18:53;;;;;;;40.60;10.43;;;;;;;-145.69;100.00;52547.38;5134801;27;20254;-81
2023/02/24 00:21:20;;;;;;;53.77;11.87;;;;;;;-145.69;100.00;52537.47;5134954;27;20555;-81
2023/02/24 00:23:47;;;;;;;55.20;12.90;;;;;;;-145.69;100.00;52515.69;5134715;27;20208;-81
2023/02/24 00:26:16;;;;;;;45.50;12.07;;;;;;;-145.69;100.00;52541.44;5134864;27;20205;-81
2023/02/24 00:28:43;;;;;;;55.57;12.43;;;;;;;-145.69;100.00;52507.75;5135085;27;20224;-82
2023/02/24 00:31:12;;;;;;;54.30;12.90;;;;;;;-145.69;100.00;52503.81;5134904;27;20232;-81
2023/02/24 00:33:40;;;;;;;55.70;14.00;;;;;;;-145.69;100.00;52533.50;5134793;27;20212;-81
2023/02/24 00:36:11;;;;;;;57.23;13.07;;;;;;;-145.69;100.00;52523.59;5134595;27;20652;-81
2023/02/24 00:38:38;;;;;;;54.23;13.00;;;;;;;-145.69;100.00;52545.38;5134709;27;20226;-81
2023/02/24 00:41:13;;;;;;;57.33;12.40;;;;;;;-145.69;100.00;52499.84;5134354;27;20200;-81
2023/02/24 00:43:45;;;;;;;46.93;12.30;;;;;;;-145.69;100.00;52523.59;5134209;27;20273;-81
2023/02/24 00:46:12;;;;;;;57.43;12.20;;;;;;;-145.69;100.00;52559.25;5121152;27;20193;-80
2023/02/24 00:48:44;;;;;;;58.77;12.40;;;;;;;-145.69;100.00;52543.41;5113826;28;20229;-81
2023/02/24 00:51:15;;;;;;;43.23;11.10;;;;;;;-145.69;100.00;52531.53;5113737;28;20198;-81
2023/02/24 00:53:43;;;;;;;43.30;10.33;;;;;;;-145.69;100.00;52509.75;5114957;27;20197;-81
2023/02/24 00:56:12;;;;;;;51.97;12.13;;;;;;;-145.69;100.00;52531.53;5134158;27;20294;-81
2023/02/24 00:58:38;;;;;;;53.77;11.23;;;;;;;-145.69;100.00;52523.59;5134469;27;20199;-81
2023/02/24 01:01:07;;;;;;;38.17;10.63;;;;;;;-145.69;100.00;52555.28;5134321;27;20200;-81
2023/02/24 01:03:34;;;;;;;49.23;10.90;;;;;;;-145.69;100.00;52539.44;5133884;27;20232;-81
2023/02/24 01:06:02;;;;;;;47.03;10.60;;;;;;;-145.69;100.00;52525.59;5134321;27;20207;-81
2023/02/24 01:08:35;;;;;;;69.87;14.27;;;;;;;-145.69;100.00;52537.47;5134021;27;20310;-81
2023/02/24 01:13:48;;;;;;;47.93;13.00;;;;;;;-145.69;100.00;52521.63;5107459;27;20701;-81
2023/02/24 01:16:17;;;;;;;58.07;13.07;;;;;;;-145.69;100.00;52517.66;5134689;27;20208;-82
2023/02/24 01:18:45;;;;;;;52.43;12.63;;;;;;;-145.69;100.00;52507.75;5134186;27;20232;-82
2023/02/24 01:21:13;;;;;;;67.47;13.87;;;;;;;-145.69;100.00;52527.56;5134242;27;20201;-82
2023/02/24 01:23:41;;;;;;;68.47;14.10;;;;;;;-145.69;100.00;52547.38;5134011;27;20201;-82
2023/02/24 01:26:08;;;;;;;62.13;13.87;;;;;;;-145.69;100.00;52521.63;5133800;27;20201;-82
2023/02/24 01:28:36;;;;;;;51.87;13.60;;;;;;;-145.69;100.00;52551.31;5134048;27;20229;-81
2023/02/24 01:31:04;;;;;;;67.10;14.00;;;;;;;-145.69;100.00;52489.94;5134250;27;20286;-81
2023/02/24 01:33:32;;;;;;;53.03;13.43;;;;;;;-145.69;100.00;52531.53;5133472;27;20228;-81
2023/02/24 01:36:08;;;;;;;52.93;14.00;;;;;;;-145.69;100.00;52515.69;5133558;27;20593;-82
2023/02/24 01:38:35;;;;;;;48.87;13.33;;;;;;;-145.69;100.00;52507.75;5134060;27;20204;-83
2023/02/24 01:41:04;;;;;;;56.80;14.70;;;;;;;-145.69;100.00;52511.72;5133726;27;20234;-82
2023/02/24 01:43:32;;;;;;;62.63;15.23;;;;;;;-145.69;100.00;52519.63;5133967;27;20207;-82
2023/02/24 01:45:58;;;;;;;60.70;14.30;;;;;;;-145.69;100.00;52533.50;5133957;27;20698;-82
2023/02/24 01:48:26;;;;;;;54.83;14.63;;;;;;;-145.69;100.00;52521.63;5133748;28;20220;-81
2023/02/24 01:50:52;;;;;;;72.40;15.23;;;;;;;-145.69;100.00;52535.47;5133907;27;20670;-81
2023/02/24 01:53:19;;;;;;;71.10;16.20;;;;;;;-145.69;100.00;52539.44;5133901;27;20281;-80
2023/02/24 01:55:49;;;;;;;54.87;14.00;;;;;;;-145.69;100.00;52537.47;5133246;27;20197;-81
2023/02/24 01:58:23;;;;;;;64.30;15.07;;;;;;;-145.69;100.00;52527.56;5141626;27;20192;-81
2023/02/24 02:00:51;;;;;;;52.20;14.10;;;;;;;-145.69;100.00;52535.47;5154715;27;20200;-81
2023/02/24 02:03:25;;;;;;;52.37;12.53;;;;;;;-145.69;100.00;52511.72;5154890;27;20226;-82
2023/02/24 02:05:53;;;;;;;46.83;13.13;;;;;;;-145.69;100.00;52529.53;5155085;27;20203;-81
2023/02/24 02:08:23;;;;;;;50.87;13.97;;;;;;;-145.69;100.00;52533.50;5135525;27;20231;-81
2023/02/24 02:10:57;;;;;;;48.40;13.37;;;;;;;-145.69;100.00;52541.44;5134739;27;20567;-82
2023/02/24 02:13:26;;;;;;;48.27;12.57;;;;;;;-145.69;100.00;52545.38;5133442;28;20197;-81
2023/02/24 02:16:02;;;;;;;54.47;12.17;;;;;;;-145.69;100.00;52541.44;5133945;28;20340;-81
2023/02/24 02:18:42;;;;;;;55.27;14.10;;;;;;;-145.69;100.00;52519.63;5134253;28;20204;-81
2023/02/24 02:21:43;;;;;;;51.07;12.90;;;;;;;-145.69;100.00;52541.44;5133813;27;20196;-82
2023/02/24 02:24:31;;;;;;;48.03;11.93;;;;;;;-145.69;100.00;52523.59;5133713;28;20199;-82
2023/02/24 02:27:20;;;;;;;35.57;11.43;;;;;;;-145.69;100.00;52551.31;5133567;27;20291;-82
2023/02/24 02:30:23;;;;;;;45.37;11.83;;;;;;;-145.69;100.00;52503.81;5133532;28;20289;-82
2023/02/24 02:33:12;;;;;;;45.23;11.20;;;;;;;-145.69;100.00;52547.38;5107655;28;20189;-82
2023/02/24 02:35:45;;;;;;;161.37;14.97;;;;;;;-145.69;100.00;52543.41;5133615;28;20207;-82
2023/02/24 02:38:24;;;;;;;53.27;10.90;;;;;;;-145.69;100.00;52515.69;5131911;28;20614;-81
2023/02/24 02:40:59;;;;;;;52.23;13.53;;;;;;;-145.69;100.00;52515.69;5133478;27;20197;-82
2023/02/24 02:43:32;;;;;;;57.07;13.53;;;;;;;-145.69;100.00;52531.53;5133978;27;20225;-82
2023/02/24 02:46:03;;;;;;;54.20;13.60;;;;;;;-145.69;100.00;52547.38;5132281;28;20651;-82
2023/02/24 02:48:35;;;;;;;41.20;10.63;;;;;;;-145.69;100.00;52535.47;5135862;27;20221;-82
2023/02/24 02:51:09;;;;;;;51.83;11.70;;;;;;;-145.69;100.00;52525.59;5137682;27;20205;-81
2023/02/24 02:53:44;;;;;;;39.30;10.20;;;;;;;-145.69;100.00;52533.50;5137916;27;20242;-82
2023/02/24 02:56:16;;;;;;;32.67;9.13;;;;;;;-145.69;100.00;52557.28;5137422;27;20200;-82
2023/02/24 02:58:52;;;;;;;58.60;12.17;;;;;;;-145.69;100.00;52527.56;5136994;27;20678;-81
2023/02/24 03:01:50;;;;;;;60.77;11.57;;;;;;;-145.69;100.00;52539.44;5137459;27;20658;-82
2023/02/24 03:04:21;;;;;;;53.80;11.67;;;;;;;-145.69;100.00;52527.56;5136359;27;20225;-81
2023/02/24 03:06:55;;;;;;;99.83;13.10;;;;;;;-145.69;100.00;52537.47;5136878;27;20207;-80
2023/02/24 03:09:26;;;;;;;86.97;12.67;;;;;;;-145.69;100.00;52539.44;5136480;27;20226;-82
2023/02/24 03:11:58;;;;;;;76.77;13.70;;;;;;;-145.69;100.00;52513.69;5136625;27;20196;-82
2023/02/24 03:14:29;;;;;;;48.17;11.50;;;;;;;-145.69;100.00;52517.66;5136486;27;20215;-82
2023/02/24 03:16:58;;;;;;;35.50;10.57;;;;;;;-145.69;100.00;52541.44;5136484;27;20200;-82
2023/02/24 03:19:30;;;;;;;72.40;13.87;;;;;;;-145.69;100.00;52559.25;5136344;27;20669;-81
2023/02/24 03:22:06;;;;;;;40.50;11.43;;;;;;;-145.69;100.00;52537.47;5136989;27;20212;-81
2023/02/24 03:24:35;;;;;;;37.10;10.90;;;;;;;-145.69;100.00;52563.22;5136314;27;20211;-81
2023/02/24 03:27:10;;;;;;;38.53;10.17;;;;;;;-145.69;100.00;52519.63;5136217;27;20193;-82
2023/02/24 03:29:44;;;;;;;38.33;10.27;;;;;;;-145.69;100.00;52539.44;5136835;27;20256;-82
2023/02/24 03:32:16;;;;;;;32.80;10.13;;;;;;;-145.69;100.00;52503.81;5136537;27;20197;-82
2023/02/24 03:34:50;;;;;;;28.63;9.13;;;;;;;-145.69;100.00;52539.44;5136555;27;20604;-82
2023/02/24 03:37:24;;;;;;;35.03;9.40;;;;;;;-145.69;100.00;52547.38;5136456;27;20210;-81
2023/02/24 03:39:52;;;;;;;30.03;8.77;;;;;;;-145.69;100.00;52561.22;5135880;27;20651;-81
2023/02/24 03:42:20;;;;;;;33.27;9.27;;;;;;;-145.69;100.00;52507.75;5135186;27;20193;-83
2023/02/24 03:44:49;;;;;;;30.97;8.90;;;;;;;-145.69;100.00;52547.38;5134543;27;20555;-82
2023/02/24 03:47:19;;;;;;;39.20;10.23;;;;;;;-145.69;100.00;52529.53;5135944;27;20283;-82
2023/02/24 03:49:45;;;;;;;34.27;10.10;;;;;;;-145.69;100.00;52519.63;5135326;27;20255;-83
2023/02/24 03:52:28;;;;;;;27.93;8.93;;;;;;;-145.69;100.00;52567.16;5136235;27;20532;-82
2023/02/24 03:55:10;;;;;;;41.33;9.80;;;;;;;-145.69;100.00;52563.22;5136793;27;20196;-82
2023/02/24 03:57:55;;;;;;;24.47;8.80;;;;;;;-145.69;100.00;52547.38;5136740;27;20208;-82
2023/02/24 04:00:37;;;;;;;33.43;9.37;;;;;;;-145.69;100.00;52561.22;5136973;27;20232;-83
2023/02/24 04:03:22;;;;;;;40.60;9.93;;;;;;;-145.69;100.00;52507.75;5136120;27;20196;-82
2023/02/24 04:05:58;;;;;;;43.80;10.97;;;;;;;-145.69;100.00;52557.28;5136281;27;20196;-83
2023/02/24 04:08:31;;;;;;;32.43;8.73;;;;;;;-145.69;100.00;52535.47;5135171;27;20253;-82
2023/02/24 04:11:06;;;;;;;21.40;7.77;;;;;;;-145.69;100.00;52537.47;5135777;27;20201;-82
2023/02/24 04:13:42;;;;;;;24.77;7.63;;;;;;;-145.69;100.00;52555.28;5136164;27;20287;-82
2023/02/24 04:16:17;;;;;;;28.53;8.40;;;;;;;-145.69;100.00;52563.22;5135848;27;20208;-82
2023/02/24 04:18:48;;;;;;;28.77;8.30;;;;;;;-145.69;100.00;52565.19;5135803;27;20291;-82
2023/02/24 04:21:17;;;;;;;26.03;7.50;;;;;;;-145.69;100.00;52571.13;5134739;27;20283;-82
2023/02/24 04:23:46;;;;;;;25.23;7.93;;;;;;;-145.69;100.00;52547.38;5136151;27;20212;-82
2023/02/24 04:26:20;;;;;;;33.17;8.13;;;;;;;-145.69;100.00;52551.31;5135640;27;20207;-82
2023/02/24 04:28:50;;;;;;;25.73;8.67;;;;;;;-145.69;100.00;52539.44;5131271;27;20570;-83
2023/02/24 04:31:22;;;;;;;31.50;8.83;;;;;;;-145.69;100.00;52515.69;5135241;27;20197;-82
2023/02/24 04:33:49;;;;;;;17.17;8.37;;;;;;;-145.69;100.00;52575.09;5135130;27;20199;-82
2023/02/24 04:36:17;;;;;;;198.77;14.93;;;;;;;-145.69;100.00;52521.63;5135471;27;20606;-82
2023/02/24 04:38:45;;;;;;;35.80;9.37;;;;;;;-145.69;100.00;52553.31;5135638;27;20200;-82
2023/02/24 04:41:17;;;;;;;17.20;7.20;;;;;;;-145.69;100.00;52515.69;5135466;27;20241;-82
2023/02/24 04:43:45;;;;;;;30.03;7.20;;;;;;;-145.69;100.00;52529.53;5135076;27;20667;-82
2023/02/24 04:46:12;;;;;;;247.07;17.40;;;;;;;-145.69;100.00;52575.09;5134766;27;20200;-77
2023/02/24 04:48:38;;;;;;;96.23;10.70;;;;;;;-145.69;100.00;52559.25;5134864;27;20197;-82
2023/02/24 04:51:07;;;;;;;20.43;7.37;;;;;;;-145.69;100.00;52545.38;5134680;27;20221;-82
2023/02/24 04:53:34;;;;;;;21.23;6.80;;;;;;;-145.69;100.00;52575.09;5134650;27;20208;-82
2023/02/24 04:56:07;;;;;;;28.70;8.90;;;;;;;-145.69;100.00;52551.31;5134791;27;20197;-82
2023/02/24 04:58:36;;;;;;;21.10;8.17;;;;;;;-145.69;100.00;52515.69;5134732;27;20620;-82
2023/02/24 05:01:10;;;;;;;37.90;7.40;;;;;;;-145.69;100.00;52557.28;5134396;27;20292;-82
2023/02/24 05:03:40;;;;;;;80.20;8.53;;;;;;;-145.69;100.00;52555.28;5134247;27;20587;-80
2023/02/24 05:06:12;;;;;;;14.57;6.03;;;;;;;-145.69;100.00;52519.63;5135069;27;20705;-82
2023/02/24 05:08:40;;;;;;;11.73;4.87;;;;;;;-145.69;100.00;52579.06;5135162;27;20655;-81
2023/02/24 05:11:14;;;;;;;23.03;5.67;;;;;;;-145.69;100.00;52547.38;5133880;27;20309;-82
2023/02/24 05:13:44;;;;;;;9.10;4.60;;;;;;;-145.69;100.00;52551.31;5135111;27;20204;-82
2023/02/24 05:16:15;;;;;;;8.43;4.20;;;;;;;-145.69;100.00;52563.22;5134883;27;20571;-81
2023/02/24 05:18:44;;;;;;;12.10;5.13;;;;;;;-145.69;100.00;52565.19;5134879;27;20253;-82
2023/02/24 05:21:34;;;;;;;27.57;6.10;;;;;;;-145.69;100.00;52531.53;5136028;27;20643;-82
2023/02/24 05:24:05;;;;;;;24.23;6.23;;;;;;;-145.69;100.00;52567.16;5136732;27;20203;-81
2023/02/24 05:26:48;;;;;;;31.30;7.30;;;;;;;-145.69;100.00;52569.16;5135293;27;20270;-83
2023/02/24 05:29:14;;;;;;;31.80;8.10;;;;;;;-145.69;100.00;52571.13;5133433;27;20664;-82
2023/02/24 05:31:41;;;;;;;25.47;8.07;;;;;;;-145.69;100.00;52567.16;5133973;27;20201;-82
2023/02/24 05:34:17;;;;;;;34.50;8.37;;;;;;;-145.69;100.00;52557.28;5133624;27;20201;-82
2023/02/24 05:36:44;;;;;;;28.23;7.40;;;;;;;-145.69;100.00;52583.00;5134039;27;20642;-83
2023/02/24 05:39:13;;;;;;;23.07;7.03;;;;;;;-145.69;100.00;52590.94;5135778;27;20673;-83
2023/02/24 05:41:42;;;;;;;33.43;7.83;;;;;;;-145.69;100.00;52555.28;5133991;27;20193;-82
2023/02/24 05:44:12;;;;;;;27.23;7.57;;;;;;;-145.69;100.00;52561.22;5134437;27;20197;-82
2023/02/24 05:46:43;;;;;;;34.33;8.60;;;;;;;-145.69;100.00;52543.41;5134016;27;20288;-82
2023/02/24 05:49:16;;;;;;;38.23;9.23;;;;;;;-145.69;100.00;52567.16;5134241;27;20199;-83
2023/02/24 05:51:53;;;;;;;36.67;9.37;;;;;;;-145.69;100.00;52547.38;5133942;28;20288;-82
2023/02/24 05:54:23;;;;;;;34.23;8.33;;;;;;;-145.69;100.00;52575.09;5133962;27;20200;-81
2023/02/24 05:56:55;;;;;;;72.47;9.97;;;;;;;-145.69;100.00;52531.53;5134231;27;20196;-82
2023/02/24 05:59:24;;;;;;;29.97;8.20;;;;;;;-145.69;100.00;52547.38;5133519;27;20189;-82
2023/02/24 06:01:52;;;;;;;28.07;7.93;;;;;;;-145.69;100.00;52588.97;5133839;28;20679;-82
2023/02/24 06:04:38;;;;;;;24.50;7.53;;;;;;;-145.69;100.00;52533.50;5133607;27;20293;-82
2023/02/24 06:07:12;;;;;;;38.50;8.80;;;;;;;-145.69;100.00;52575.09;5134833;27;20201;-82
2023/02/24 06:09:43;;;;;;;55.87;9.50;;;;;;;-145.69;100.00;52547.38;5133544;27;20226;-82
2023/02/24 06:12:13;;;;;;;28.60;7.80;;;;;;;-145.69;100.00;52559.25;5134292;27;20197;-83
2023/02/24 06:14:41;;;;;;;31.20;8.00;;;;;;;-145.69;100.00;52581.03;5133990;27;20562;-82
2023/02/24 06:17:07;;;;;;;38.13;9.00;;;;;;;-145.69;100.00;52545.38;5134007;27;20207;-82
2023/02/24 06:19:34;;;;;;;34.67;8.73;;;;;;;-145.69;100.00;52555.28;5126961;27;20591;-82
2023/02/24 06:22:01;;;;;;;28.80;8.33;;;;;;;-145.69;100.00;52557.28;5112991;28;20203;-82
2023/02/24 06:24:29;;;;;;;34.57;8.33;;;;;;;-145.69;100.00;52588.97;5117313;28;20749;-82
2023/02/24 06:27:01;;;;;;;34.20;7.53;;;;;;;-145.69;100.00;52553.31;5117299;28;20200;-82
2023/02/24 06:29:32;;;;;;;20.50;6.97;;;;;;;-145.69;100.00;52531.53;5117128;28;20678;-82
2023/02/24 06:32:07;;;;;;;35.20;9.43;;;;;;;-145.69;100.00;52561.22;5124794;27;20204;-82
2023/02/24 06:34:34;;;;;;;28.77;9.03;;;;;;;-145.69;100.00;52575.09;5137913;27;20235;-81
2023/02/24 06:37:03;;;;;;;38.17;8.33;;;;;;;-145.69;100.00;52567.16;5137913;27;20739;-82
2023/02/24 06:39:31;;;;;;;43.80;10.83;;;;;;;-145.69;100.00;52549.34;5137284;27;20655;-82
2023/02/24 06:42:02;;;;;;;35.20;9.70;;;;;;;-145.69;100.00;52555.28;5137359;27;20197;-83
2023/02/24 06:44:29;;;;;;;28.17;8.23;;;;;;;-145.69;100.00;52547.38;5137304;27;20193;-82
2023/02/24 06:46:56;;;;;;;36.87;9.17;;;;;;;-145.69;100.00;52553.31;5136953;27;20207;-82
2023/02/24 06:49:28;;;;;;;50.63;10.57;;;;;;;-145.69;100.00;52579.06;5136808;27;20196;-82
2023/02/24 06:51:56;;;;;;;48.27;10.67;;;;;;;-145.69;100.00;52551.31;5137383;27;20211;-82
2023/02/24 06:54:24;;;;;;;33.37;9.13;;;;;;;-145.69;100.00;52553.31;5137369;27;20200;-82
2023/02/24 06:56:53;;;;;;;27.57;8.80;;;;;;;-145.69;100.00;52531.53;5137500;27;20203;-82
2023/02/24 06:59:21;;;;;;;29.53;9.20;;;;;;;-145.69;100.00;52549.34;5137156;27;20211;-82
2023/02/24 07:01:48;;;;;;;37.27;9.97;;;;;;;-145.69;100.00;52523.59;5136424;27;20724;-82
2023/02/24 07:04:19;;;;;;;29.87;9.27;;;;;;;-145.69;100.00;52563.22;5136594;27;20225;-83
2023/02/24 07:06:52;;;;;;;45.20;11.40;;;;;;;-145.69;100.00;52559.25;5136995;27;20197;-82
2023/02/24 07:09:21;;;;;;;37.13;10.23;;;;;;;-145.69;100.00;52551.31;5136050;27;20647;-82
2023/02/24 07:11:51;;;;;;;50.20;10.60;;;;;;;-145.69;100.00;52537.47;5136582;27;20318;-82
2023/02/24 07:14:19;;;;;;;47.67;12.80;;;;;;;-145.69;100.00;52547.38;5136800;27;20204;-82
2023/02/24 07:16:49;;;;;;;45.60;12.40;;;;;;;-145.69;100.00;52533.50;5136706;27;20219;-82
2023/02/24 07:19:19;;;;;;;36.47;10.80;;;;;;;-145.69;100.00;52573.13;5136472;27;20205;-83
2023/02/24 07:21:48;;;;;;;188.87;22.10;;;;;;;-145.69;100.00;52563.22;5136417;27;20239;-82
2023/02/24 07:24:23;;;;;;;404.40;28.13;;;;;;;-145.69;100.00;52545.38;5135031;27;20200;-82
2023/02/24 07:26:56;;;;;;;41.03;12.53;;;;;;;-145.69;100.00;52551.31;5136720;27;20200;-82
2023/02/24 07:29:24;;;;;;;175.83;18.37;;;;;;;-145.69;100.00;52543.41;5136708;27;20250;-82
2023/02/24 07:31:53;;;;;;;120.23;16.17;;;;;;;-145.69;100.00;52533.50;5136037;27;20225;-82
2023/02/24 07:34:23;;;;;;;50.20;13.47;;;;;;;-145.69;100.00;52531.53;5134599;27;20216;-82
2023/02/24 07:36:50;;;;;;;153.07;16.00;;;;;;;-145.69;100.00;52551.31;5136221;27;20207;-82
2023/02/24 07:39:19;;;;;;;177.30;16.53;;;;;;;-145.69;100.00;52553.31;5135704;27;20203;-82
2023/02/24 07:41:48;;;;;;;38.53;11.37;;;;;;;-145.69;100.00;52527.56;5136075;27;20197;-82
2023/02/24 07:44:16;;;;;;;48.30;12.37;;;;;;;-145.69;100.00;52569.16;5136027;27;20201;-82
2023/02/24 07:46:42;;;;;;;35.87;11.83;;;;;;;-145.69;100.00;52569.16;5135947;27;20197;-83
2023/02/24 07:49:13;;;;;;;69.60;15.20;;;;;;;-145.69;100.00;52551.31;5135866;27;20235;-82
2023/02/24 07:51:40;;;;;;;31.87;12.23;;;;;;;-145.69;100.00;52545.38;5135622;27;20594;-83
2023/02/24 07:54:07;;;;;;;59.00;13.33;;;;;;;-145.69;100.00;52543.41;5135950;27;20201;-82
2023/02/24 07:56:44;;;;;;;74.60;14.57;;;;;;;-145.69;100.00;52541.44;5134452;27;20197;-83
2023/02/24 07:59:14;;;;;;;168.70;18.47;;;;;;;-145.69;100.00;52519.63;5135612;27;20196;-83
2023/02/24 08:01:48;;;;;;;53.00;14.90;;;;;;;-145.69;100.00;52519.63;5135281;27;20663;-83
2023/02/24 08:04:17;;;;;;;42.57;13.07;;;;;;;-145.69;100.00;52511.72;5114787;28;20278;-81
2023/02/24 08:06:44;;;;;;;40.50;13.20;;;;;;;-145.69;100.00;52517.66;5121307;27;20189;-82
2023/02/24 08:09:16;;;;;;;47.33;13.00;;;;;;;-145.69;100.00;52555.28;5135415;27;20206;-83
2023/02/24 08:11:46;;;;;;;49.97;12.67;;;;;;;-145.69;100.00;52575.09;5135440;27;20225;-83
2023/02/24 08:14:13;;;;;;;46.07;14.27;;;;;;;-145.69;100.00;52547.38;5135551;27;20223;-83
2023/02/24 08:16:41;;;;;;;71.43;18.17;;;;;;;-145.69;100.00;52533.50;5135059;27;20193;-82
2023/02/24 08:19:11;;;;;;;74.70;18.73;;;;;;;-145.69;100.00;52521.63;5135019;27;20193;-83
2023/02/24 08:21:40;;;;;;;74.33;20.03;;;;;;;-145.69;100.00;52543.41;5135454;27;20197;-83
2023/02/24 08:24:08;;;;;;;70.27;19.03;;;;;;;-145.69;100.00;52531.53;5135187;27;20200;-83
2023/02/24 08:26:43;;;;;;;71.07;19.77;;;;;;;-145.69;100.00;52537.47;5129445;27;20201;-82
2023/02/24 08:29:11;;;;;;;64.57;19.27;;;;;;;-145.69;100.00;52519.63;5114390;28;20197;-82
2023/02/24 08:31:37;;;;;;;47.93;16.73;;;;;;;-145.69;100.00;52531.53;5114446;28;20745;-81
2023/02/24 08:34:04;;;;;;;50.53;17.57;;;;;;;-145.69;100.00;52519.63;5132018;27;20199;-82
2023/02/24 08:36:30;;;;;;;51.20;16.80;;;;;;;-145.69;100.00;52513.69;5134427;27;20225;-82
2023/02/24 08:38:58;;;;;;;62.43;18.40;;;;;;;-145.69;100.00;52527.56;5134808;27;20208;-82
2023/02/24 08:41:43;;;;;;;66.97;19.60;;;;;;;-145.69;100.00;52515.69;5134774;27;20667;-83
2023/02/24 08:44:15;;;;;;;43.77;15.77;;;;;;;-145.69;100.00;52525.59;5135518;27;20208;-82
2023/02/24 08:46:43;;;;;;;37.03;13.93;;;;;;;-145.69;100.00;52487.97;5134700;27;20662;-82
2023/02/24 08:49:11;;;;;;;39.47;14.40;;;;;;;-145.69;100.00;52535.47;5137736;27;20218;-83
2023/02/24 08:51:42;;;;;;;46.47;14.37;;;;;;;-145.69;100.00;52531.53;5155590;27;20231;-82
2023/02/24 08:54:14;;;;;;;41.63;14.23;;;;;;;-145.69;100.00;52531.53;5155597;27;20565;-81
2023/02/24 08:56:43;;;;;;;48.53;17.30;;;;;;;-145.69;100.00;52523.59;5154821;27;20654;-82
2023/02/24 08:59:27;;;;;;;35.20;13.90;;;;;;;-145.69;100.00;52487.97;5155228;27;20234;-84
2023/02/24 09:02:17;;;;;;;36.43;13.87;;;;;;;-145.69;100.00;52507.75;5155727;27;20203;-85
2023/02/24 09:04:44;;;;;;;30.93;11.40;;;;;;;-145.69;100.00;52511.72;5134218;27;20560;-82
2023/02/24 09:07:14;;;;;;;30.60;13.63;;;;;;;-145.69;100.00;52509.75;5134263;27;20224;-83
2023/02/24 09:09:41;;;;;;;28.23;10.47;;;;;;;-145.69;100.00;52495.88;5132667;27;20197;-84
2023/02/24 09:12:09;;;;;;;37.40;14.40;;;;;;;-145.69;100.00;52452.31;5133980;27;20220;-84
2023/02/24 09:14:37;;;;;;;26.83;8.33;;;;;;;-145.69;100.00;52515.69;5134458;27;20232;-82
2023/02/24 09:17:09;;;;;;;27.10;9.43;;;;;;;-145.69;100.00;52499.84;5133991;27;20192;-82
2023/02/24 09:22:39;;;;;;;26.60;9.57;;;;;;;-145.69;100.00;52503.81;5112543;27;20699;-81
2023/02/24 09:25:17;;;;;;;21.70;8.90;;;;;;;-145.69;100.00;52503.81;5134187;27;20206;-82
2023/02/24 09:27:46;;;;;;;17.30;8.33;;;;;;;-145.69;100.00;52527.56;5134739;27;20247;-78
2023/02/24 09:30:34;;;;;;;21.13;8.60;;;;;;;-145.69;100.00;52503.81;5134095;27;20192;-79
2023/02/24 09:33:01;;;;;;;23.23;7.10;;;;;;;-145.69;100.00;52493.91;5133808;27;20207;-78
2023/02/24 09:35:29;;;;;;;27.50;8.00;;;;;;;-145.69;100.00;52559.25;5133588;27;20208;-79
2023/02/24 09:37:59;;;;;;;35.03;8.27;;;;;;;-145.69;100.00;52487.97;5134018;28;20196;-79
2023/02/24 09:40:47;;;;;;;17.07;6.83;;;;;;;-145.69;100.00;52509.75;5134067;28;20209;-79
2023/02/24 09:43:16;;;;;;;25.07;7.70;;;;;;;-145.69;100.00;52503.81;5113533;28;20197;-79
2023/02/24 09:45:52;;;;;;;22.50;7.83;;;;;;;-145.69;100.00;52499.84;5113251;28;20261;-79
2023/02/24 09:48:24;;;;;;;22.33;7.23;;;;;;;-145.69;100.00;52523.59;5113021;28;20204;-78
2023/02/24 09:51:04;;;;;;;17.33;7.10;;;;;;;-145.69;100.00;52493.91;5113201;28;20225;-79
2023/02/24 09:53:38;;;;;;;26.43;9.03;;;;;;;-145.69;100.00;52495.88;5113755;28;20529;-79
2023/02/24 09:56:14;;;;;;;22.77;8.03;;;;;;;-145.69;100.00;52501.81;5113632;28;20237;-82
2023/02/24 09:58:53;;;;;;;24.60;8.20;;;;;;;-145.69;100.00;52503.81;5115975;28;20670;-82
2023/02/24 10:01:41;;;;;;;21.43;8.53;;;;;;;-145.69;100.00;52537.47;5118190;28;20615;-84
2023/02/24 10:04:26;;;;;;;24.37;8.13;;;;;;;-145.69;100.00;52535.47;5133135;27;20720;-83
2023/02/24 10:06:58;;;;;;;28.83;8.60;;;;;;;-145.69;100.00;52523.59;5138040;27;20197;-82
2023/02/24 10:09:33;;;;;;;22.77;7.93;;;;;;;-145.69;100.00;52511.72;5137952;27;20200;-84
2023/02/24 10:12:03;;;;;;;24.13;8.57;;;;;;;-145.69;100.00;52503.81;5137976;27;20265;-80
2023/02/24 10:14:37;;;;;;;27.03;8.53;;;;;;;-145.69;100.00;52525.59;5137783;27;20659;-82
2023/02/24 10:17:23;;;;;;;23.03;8.37;;;;;;;-145.69;100.00;52511.72;5137789;27;20716;-82
2023/02/24 10:19:58;;;;;;;27.77;8.90;;;;;;;-145.69;100.00;52517.66;5137839;27;20539;-82
2023/02/24 10:22:38;;;;;;;24.37;9.37;;;;;;;-145.69;100.00;52501.81;5137819;27;20677;-82
2023/02/24 10:25:19;;;;;;;30.60;9.13;;;;;;;-145.69;100.00;52519.63;5137885;27;20196;-82
2023/02/24 10:27:58;;;;;;;24.83;9.33;;;;;;;-145.69;100.00;52511.72;5137839;27;20200;-82
2023/02/24 10:30:40;;;;;;;23.70;9.07;;;;;;;-145.69;100.00;52515.69;5138016;27;20197;-82
2023/02/24 10:33:24;;;;;;;24.97;9.53;;;;;;;-145.69;100.00;52511.72;5131118;27;20221;-82
2023/02/24 10:35:53;;;;;;;30.10;9.57;;;;;;;-145.69;100.00;52519.63;5117101;28;20197;-83
2023/02/24 10:38:20;;;;;;;24.83;9.27;;;;;;;-145.69;100.00;52503.81;5117405;28;20204;-82
2023/02/24 10:40:55;;;;;;;23.20;9.07;;;;;;;-145.69;100.00;52521.63;5118557;28;20200;-82
2023/02/24 10:43:28;;;;;;;23.27;8.83;;;;;;;-145.69;100.00;52505.78;5120239;28;20196;-82
2023/02/24 10:46:04;;;;;;;31.67;9.23;;;;;;;-145.69;100.00;52495.88;5118172;28;20201;-83
2023/02/24 10:48:37;;;;;;;25.17;8.10;;;;;;;-145.69;100.00;52511.72;5118182;28;20197;-82
2023/02/24 10:51:17;;;;;;;19.83;7.38;;;;;;;-145.69;100.00;52474.09;5116594;28;20224;-82
2023/02/24 10:53:52;;;;;;;20.27;7.40;;;;;;;-145.69;100.00;52478.06;5117949;28;20225;-85
2023/02/24 10:56:26;;;;;;;19.20;7.78;;;;;;;-145.69;100.00;52466.16;5118052;28;20242;-71
2023/02/24 10:59:47;;;;;;;25.35;7.35;;;;;;;-145.69;100.00;52474.09;5118921;27;20197;-83
2023/02/24 11:02:28;;;;;;;17.20;7.38;;;;;;;-145.69;100.00;52478.06;5118204;28;20231;-84
2023/02/24 11:05:23;;;;;;;21.75;8.77;;;;;;;-145.69;100.00;52462.22;5136846;27;20260;-84
2023/02/24 11:07:54;;;;;;;20.08;7.88;;;;;;;-145.69;100.00;52468.16;5140262;27;20216;-84
2023/02/24 11:10:31;;;;;;;26.55;8.00;;;;;;;-145.69;100.00;52484.00;5139919;27;20196;-84
2023/02/24 11:18:32;;;;;;;18.80;6.97;;;;;;;-145.69;100.00;52478.06;5140738;27;20265;-84
2023/02/24 11:21:03;;;;;;;24.75;7.68;;;;;;;-145.69;100.00;52497.84;5141113;27;20193;-84
2023/02/24 11:23:34;;;;;;;23.35;7.68;;;;;;;-145.69;100.00;52480.03;5140333;27;20211;-84
2023/02/24 11:26:06;;;;;;;23.40;7.80;;;;;;;-145.69;100.00;52458.25;5141094;27;20200;-84
2023/02/24 11:29:05;;;;;;;27.35;8.30;;;;;;;-145.69;100.00;52478.06;5140211;27;20201;-85
2023/02/24 11:31:59;;;;;;;30.38;8.45;;;;;;;-145.69;100.00;52487.97;5141613;27;20217;-84